sensor_id;sensor_type;location;lat;lon;timestamp;temperature;humidity
3550;DHT22;45572;48.804;8.330;2022-09-30T00:01:26;11.40;95.40
3550;DHT22;45572;48.804;8.330;2022-09-30T00:03:55;11.30;95.40
3550;DHT22;45572;48.804;8.330;2022-09-30T00:06:26;11.30;95.40
3550;DHT22;45572;48.804;8.330;2022-09-30T00:08:55;11.30;95.70
3550;DHT22;45572;48.804;8.330;2022-09-30T00:11:27;11.20;95.80
3550;DHT22;45572;48.804;8.330;2022-09-30T00:13:56;11.20;95.70
3550;DHT22;45572;48.804;8.330;2022-09-30T00:16:25;11.20;95.70
3550;DHT22;45572;48.804;8.330;2022-09-30T00:18:55;11.20;95.70
3550;DHT22;45572;48.804;8.330;2022-09-30T00:21:24;11.20;95.50
3550;DHT22;45572;48.804;8.330;2022-09-30T00:23:52;11.20;95.40
3550;DHT22;45572;48.804;8.330;2022-09-30T00:26:22;11.20;95.30
3550;DHT22;45572;48.804;8.330;2022-09-30T00:28:52;11.10;95.10
3550;DHT22;45572;48.804;8.330;2022-09-30T00:31:21;11.10;95.00
3550;DHT22;45572;48.804;8.330;2022-09-30T00:33:50;11.00;95.00
3550;DHT22;45572;48.804;8.330;2022-09-30T00:36:34;11.00;95.20
3550;DHT22;45572;48.804;8.330;2022-09-30T00:39:04;11.00;95.00
3550;DHT22;45572;48.804;8.330;2022-09-30T00:41:32;10.90;95.00
3550;DHT22;45572;48.804;8.330;2022-09-30T00:44:00;10.80;94.80
3550;DHT22;45572;48.804;8.330;2022-09-30T00:46:33;10.80;95.00
3550;DHT22;45572;48.804;8.330;2022-09-30T00:49:14;10.70;95.10
3550;DHT22;45572;48.804;8.330;2022-09-30T00:51:49;10.60;95.20
3550;DHT22;45572;48.804;8.330;2022-09-30T00:54:20;10.50;95.10
3550;DHT22;45572;48.804;8.330;2022-09-30T00:56:50;10.50;95.20
3550;DHT22;45572;48.804;8.330;2022-09-30T00:59:22;10.40;95.20
3550;DHT22;45572;48.804;8.330;2022-09-30T01:01:52;10.40;95.20
3550;DHT22;45572;48.804;8.330;2022-09-30T01:04:22;10.30;95.40
3550;DHT22;45572;48.804;8.330;2022-09-30T01:06:52;10.10;95.30
3550;DHT22;45572;48.804;8.330;2022-09-30T01:09:20;10.10;95.60
3550;DHT22;45572;48.804;8.330;2022-09-30T01:11:48;10.20;95.50
3550;DHT22;45572;48.804;8.330;2022-09-30T01:14:19;10.20;95.40
3550;DHT22;45572;48.804;8.330;2022-09-30T01:16:54;10.20;95.50
3550;DHT22;45572;48.804;8.330;2022-09-30T01:19:38;10.30;95.40
3550;DHT22;45572;48.804;8.330;2022-09-30T01:22:18;10.20;95.40
3550;DHT22;45572;48.804;8.330;2022-09-30T01:25:06;10.10;95.40
3550;DHT22;45572;48.804;8.330;2022-09-30T01:27:50;10.20;95.00
3550;DHT22;45572;48.804;8.330;2022-09-30T01:30:34;10.20;95.10
3550;DHT22;45572;48.804;8.330;2022-09-30T01:33:16;10.30;95.10
3550;DHT22;45572;48.804;8.330;2022-09-30T01:35:59;10.30;94.80
3550;DHT22;45572;48.804;8.330;2022-09-30T01:38:42;10.30;94.70
3550;DHT22;45572;48.804;8.330;2022-09-30T01:41:21;10.20;94.60
3550;DHT22;45572;48.804;8.330;2022-09-30T01:43:56;10.10;94.50
3550;DHT22;45572;48.804;8.330;2022-09-30T01:46:32;10.10;94.50
3550;DHT22;45572;48.804;8.330;2022-09-30T01:49:09;10.10;94.70
3550;DHT22;45572;48.804;8.330;2022-09-30T01:51:41;10.10;95.00
3550;DHT22;45572;48.804;8.330;2022-09-30T01:54:14;10.20;94.80
3550;DHT22;45572;48.804;8.330;2022-09-30T01:56:46;10.20;94.70
3550;DHT22;45572;48.804;8.330;2022-09-30T01:59:19;10.30;94.70
3550;DHT22;45572;48.804;8.330;2022-09-30T02:01:52;10.30;94.90
3550;DHT22;45572;48.804;8.330;2022-09-30T02:04:25;10.40;94.70
3550;DHT22;45572;48.804;8.330;2022-09-30T02:06:58;10.40;94.50
3550;DHT22;45572;48.804;8.330;2022-09-30T02:09:30;10.40;94.30
3550;DHT22;45572;48.804;8.330;2022-09-30T02:12:00;10.30;94.30
3550;DHT22;45572;48.804;8.330;2022-09-30T02:14:33;10.30;94.60
3550;DHT22;45572;48.804;8.330;2022-09-30T02:17:07;10.10;94.80
3550;DHT22;45572;48.804;8.330;2022-09-30T02:19:38;10.10;95.40
3550;DHT22;45572;48.804;8.330;2022-09-30T02:22:12;10.10;95.30
3550;DHT22;45572;48.804;8.330;2022-09-30T02:24:41;10.10;95.30
3550;DHT22;45572;48.804;8.330;2022-09-30T02:27:16;10.20;95.40
3550;DHT22;45572;48.804;8.330;2022-09-30T02:29:48;10.20;95.40
3550;DHT22;45572;48.804;8.330;2022-09-30T02:32:22;10.30;95.40
3550;DHT22;45572;48.804;8.330;2022-09-30T02:34:54;10.30;95.20
3550;DHT22;45572;48.804;8.330;2022-09-30T02:37:27;10.40;95.10
3550;DHT22;45572;48.804;8.330;2022-09-30T02:40:01;10.50;95.00
3550;DHT22;45572;48.804;8.330;2022-09-30T02:42:30;10.50;94.90
3550;DHT22;45572;48.804;8.330;2022-09-30T02:45:02;10.50;94.60
3550;DHT22;45572;48.804;8.330;2022-09-30T02:47:43;10.50;94.60
3550;DHT22;45572;48.804;8.330;2022-09-30T02:50:15;10.50;94.50
3550;DHT22;45572;48.804;8.330;2022-09-30T02:52:52;10.40;94.60
3550;DHT22;45572;48.804;8.330;2022-09-30T02:55:29;10.50;94.60
3550;DHT22;45572;48.804;8.330;2022-09-30T02:58:03;10.40;94.50
3550;DHT22;45572;48.804;8.330;2022-09-30T03:00:33;10.40;94.60
3550;DHT22;45572;48.804;8.330;2022-09-30T03:03:06;10.40;94.50
3550;DHT22;45572;48.804;8.330;2022-09-30T03:05:36;10.30;94.90
3550;DHT22;45572;48.804;8.330;2022-09-30T03:08:04;10.40;95.10
3550;DHT22;45572;48.804;8.330;2022-09-30T03:10:32;10.40;95.10
3550;DHT22;45572;48.804;8.330;2022-09-30T03:13:11;10.50;95.00
3550;DHT22;45572;48.804;8.330;2022-09-30T03:15:57;10.50;94.80
3550;DHT22;45572;48.804;8.330;2022-09-30T03:18:40;10.50;94.90
3550;DHT22;45572;48.804;8.330;2022-09-30T03:21:18;10.50;94.70
3550;DHT22;45572;48.804;8.330;2022-09-30T03:24:05;10.50;94.70
3550;DHT22;45572;48.804;8.330;2022-09-30T03:26:42;10.50;94.70
3550;DHT22;45572;48.804;8.330;2022-09-30T03:29:20;10.40;94.70
3550;DHT22;45572;48.804;8.330;2022-09-30T03:32:03;10.40;95.00
3550;DHT22;45572;48.804;8.330;2022-09-30T03:34:41;10.50;94.80
3550;DHT22;45572;48.804;8.330;2022-09-30T03:37:15;10.60;94.70
3550;DHT22;45572;48.804;8.330;2022-09-30T03:39:53;10.60;94.70
3550;DHT22;45572;48.804;8.330;2022-09-30T03:42:24;10.60;94.70
3550;DHT22;45572;48.804;8.330;2022-09-30T03:44:59;10.60;94.70
3550;DHT22;45572;48.804;8.330;2022-09-30T03:47:31;10.40;94.90
3550;DHT22;45572;48.804;8.330;2022-09-30T03:50:05;10.30;95.30
3550;DHT22;45572;48.804;8.330;2022-09-30T03:52:34;10.50;95.60
3550;DHT22;45572;48.804;8.330;2022-09-30T03:55:05;10.50;95.60
3550;DHT22;45572;48.804;8.330;2022-09-30T03:57:35;10.50;95.40
3550;DHT22;45572;48.804;8.330;2022-09-30T04:00:04;10.60;95.20
3550;DHT22;45572;48.804;8.330;2022-09-30T04:02:32;10.50;95.20
3550;DHT22;45572;48.804;8.330;2022-09-30T04:05:06;10.50;95.40
3550;DHT22;45572;48.804;8.330;2022-09-30T04:07:34;10.60;95.40
3550;DHT22;45572;48.804;8.330;2022-09-30T04:10:03;10.70;95.30
3550;DHT22;45572;48.804;8.330;2022-09-30T04:12:31;10.70;95.30
3550;DHT22;45572;48.804;8.330;2022-09-30T04:14:58;10.70;95.20
3550;DHT22;45572;48.804;8.330;2022-09-30T04:17:26;10.60;95.20
3550;DHT22;45572;48.804;8.330;2022-09-30T04:19:54;10.70;95.20
3550;DHT22;45572;48.804;8.330;2022-09-30T04:22:23;10.60;95.30
3550;DHT22;45572;48.804;8.330;2022-09-30T04:24:52;10.50;95.30
3550;DHT22;45572;48.804;8.330;2022-09-30T04:27:20;10.50;95.60
3550;DHT22;45572;48.804;8.330;2022-09-30T04:29:47;10.50;95.50
3550;DHT22;45572;48.804;8.330;2022-09-30T04:32:16;10.60;95.40
3550;DHT22;45572;48.804;8.330;2022-09-30T04:34:43;10.50;95.50
3550;DHT22;45572;48.804;8.330;2022-09-30T04:37:11;10.50;95.60
3550;DHT22;45572;48.804;8.330;2022-09-30T04:39:40;10.50;95.40
3550;DHT22;45572;48.804;8.330;2022-09-30T04:42:09;10.40;95.60
3550;DHT22;45572;48.804;8.330;2022-09-30T04:44:37;10.50;95.50
3550;DHT22;45572;48.804;8.330;2022-09-30T04:47:05;10.40;95.50
3550;DHT22;45572;48.804;8.330;2022-09-30T04:49:33;10.40;95.60
3550;DHT22;45572;48.804;8.330;2022-09-30T04:52:01;10.40;95.60
3550;DHT22;45572;48.804;8.330;2022-09-30T04:54:29;10.30;95.50
3550;DHT22;45572;48.804;8.330;2022-09-30T04:56:58;10.30;95.60
3550;DHT22;45572;48.804;8.330;2022-09-30T04:59:25;10.30;95.70
3550;DHT22;45572;48.804;8.330;2022-09-30T05:01:54;10.30;95.80
3550;DHT22;45572;48.804;8.330;2022-09-30T05:04:21;10.20;95.90
3550;DHT22;45572;48.804;8.330;2022-09-30T05:06:49;10.20;96.10
3550;DHT22;45572;48.804;8.330;2022-09-30T05:09:17;10.20;96.10
3550;DHT22;45572;48.804;8.330;2022-09-30T05:11:45;10.10;96.30
3550;DHT22;45572;48.804;8.330;2022-09-30T05:14:14;10.10;96.40
3550;DHT22;45572;48.804;8.330;2022-09-30T05:16:42;10.10;96.30
3550;DHT22;45572;48.804;8.330;2022-09-30T05:19:10;10.00;96.40
3550;DHT22;45572;48.804;8.330;2022-09-30T05:21:37;10.00;96.40
3550;DHT22;45572;48.804;8.330;2022-09-30T05:24:06;9.90;96.30
3550;DHT22;45572;48.804;8.330;2022-09-30T05:26:34;9.90;96.70
3550;DHT22;45572;48.804;8.330;2022-09-30T05:29:01;9.80;96.80
3550;DHT22;45572;48.804;8.330;2022-09-30T05:31:31;9.90;96.80
3550;DHT22;45572;48.804;8.330;2022-09-30T05:33:59;9.80;96.80
3550;DHT22;45572;48.804;8.330;2022-09-30T05:36:27;9.90;96.70
3550;DHT22;45572;48.804;8.330;2022-09-30T05:38:55;9.90;96.70
3550;DHT22;45572;48.804;8.330;2022-09-30T05:41:22;9.90;96.60
3550;DHT22;45572;48.804;8.330;2022-09-30T05:43:50;9.90;96.50
3550;DHT22;45572;48.804;8.330;2022-09-30T05:46:19;9.90;96.60
3550;DHT22;45572;48.804;8.330;2022-09-30T05:48:51;9.80;96.70
3550;DHT22;45572;48.804;8.330;2022-09-30T05:51:19;9.90;96.80
3550;DHT22;45572;48.804;8.330;2022-09-30T05:53:47;9.90;96.80
3550;DHT22;45572;48.804;8.330;2022-09-30T05:56:15;10.10;96.80
3550;DHT22;45572;48.804;8.330;2022-09-30T05:58:43;10.00;96.50
3550;DHT22;45572;48.804;8.330;2022-09-30T06:01:13;10.10;96.60
3550;DHT22;45572;48.804;8.330;2022-09-30T06:03:41;10.10;96.40
3550;DHT22;45572;48.804;8.330;2022-09-30T06:06:11;9.90;96.80
3550;DHT22;45572;48.804;8.330;2022-09-30T06:08:39;10.00;96.80
3550;DHT22;45572;48.804;8.330;2022-09-30T06:11:10;10.20;96.80
3550;DHT22;45572;48.804;8.330;2022-09-30T06:13:39;10.30;96.80
3550;DHT22;45572;48.804;8.330;2022-09-30T06:16:12;10.50;96.60
3550;DHT22;45572;48.804;8.330;2022-09-30T06:18:40;10.60;96.50
3550;DHT22;45572;48.804;8.330;2022-09-30T06:21:11;10.70;96.30
3550;DHT22;45572;48.804;8.330;2022-09-30T06:23:39;10.70;96.10
3550;DHT22;45572;48.804;8.330;2022-09-30T06:26:09;10.70;96.10
3550;DHT22;45572;48.804;8.330;2022-09-30T06:28:39;10.90;95.90
3550;DHT22;45572;48.804;8.330;2022-09-30T06:31:07;11.00;95.70
3550;DHT22;45572;48.804;8.330;2022-09-30T06:33:36;11.10;95.60
3550;DHT22;45572;48.804;8.330;2022-09-30T06:36:05;11.20;95.40
3550;DHT22;45572;48.804;8.330;2022-09-30T06:38:34;11.30;95.20
3550;DHT22;45572;48.804;8.330;2022-09-30T06:41:08;11.30;94.70
3550;DHT22;45572;48.804;8.330;2022-09-30T06:43:36;11.30;94.40
3550;DHT22;45572;48.804;8.330;2022-09-30T06:46:08;11.40;94.30
3550;DHT22;45572;48.804;8.330;2022-09-30T06:48:46;11.50;94.20
3550;DHT22;45572;48.804;8.330;2022-09-30T06:51:13;11.60;94.30
3550;DHT22;45572;48.804;8.330;2022-09-30T06:53:43;11.60;94.20
3550;DHT22;45572;48.804;8.330;2022-09-30T06:56:17;11.80;94.20
3550;DHT22;45572;48.804;8.330;2022-09-30T06:58:45;11.90;93.80
3550;DHT22;45572;48.804;8.330;2022-09-30T07:01:13;12.00;93.20
3550;DHT22;45572;48.804;8.330;2022-09-30T07:03:43;12.10;93.10
3550;DHT22;45572;48.804;8.330;2022-09-30T07:06:13;12.20;92.80
3550;DHT22;45572;48.804;8.330;2022-09-30T07:08:41;12.40;92.80
3550;DHT22;45572;48.804;8.330;2022-09-30T07:11:11;12.50;92.00
3550;DHT22;45572;48.804;8.330;2022-09-30T07:13:42;12.70;91.90
3550;DHT22;45572;48.804;8.330;2022-09-30T07:16:11;12.80;90.70
3550;DHT22;45572;48.804;8.330;2022-09-30T07:18:40;13.00;90.30
3550;DHT22;45572;48.804;8.330;2022-09-30T07:21:09;13.10;90.20
3550;DHT22;45572;48.804;8.330;2022-09-30T07:23:38;13.20;89.80
3550;DHT22;45572;48.804;8.330;2022-09-30T07:26:09;13.30;89.40
3550;DHT22;45572;48.804;8.330;2022-09-30T07:28:37;13.40;89.00
3550;DHT22;45572;48.804;8.330;2022-09-30T07:31:08;13.50;88.50
3550;DHT22;45572;48.804;8.330;2022-09-30T07:33:57;13.60;88.20
3550;DHT22;45572;48.804;8.330;2022-09-30T07:36:25;13.70;87.80
3550;DHT22;45572;48.804;8.330;2022-09-30T07:38:59;13.60;87.30
3550;DHT22;45572;48.804;8.330;2022-09-30T07:41:35;13.40;88.10
3550;DHT22;45572;48.804;8.330;2022-09-30T07:44:03;13.30;88.60
3550;DHT22;45572;48.804;8.330;2022-09-30T07:46:35;13.40;88.80
3550;DHT22;45572;48.804;8.330;2022-09-30T07:49:11;13.30;88.20
3550;DHT22;45572;48.804;8.330;2022-09-30T07:51:41;13.10;89.40
3550;DHT22;45572;48.804;8.330;2022-09-30T07:54:13;13.30;89.30
3550;DHT22;45572;48.804;8.330;2022-09-30T07:56:46;13.60;88.80
3550;DHT22;45572;48.804;8.330;2022-09-30T07:59:36;14.00;88.70
3550;DHT22;45572;48.804;8.330;2022-09-30T08:02:05;14.30;86.80
3550;DHT22;45572;48.804;8.330;2022-09-30T08:04:33;14.30;85.70
3550;DHT22;45572;48.804;8.330;2022-09-30T08:07:08;14.50;85.50
3550;DHT22;45572;48.804;8.330;2022-09-30T08:09:40;15.10;85.30
3550;DHT22;45572;48.804;8.330;2022-09-30T08:12:13;15.50;82.50
3550;DHT22;45572;48.804;8.330;2022-09-30T08:14:41;15.90;82.70
3550;DHT22;45572;48.804;8.330;2022-09-30T08:17:10;16.20;81.70
3550;DHT22;45572;48.804;8.330;2022-09-30T08:19:37;16.40;80.70
3550;DHT22;45572;48.804;8.330;2022-09-30T08:22:09;16.60;80.00
3550;DHT22;45572;48.804;8.330;2022-09-30T08:24:39;16.80;79.40
3550;DHT22;45572;48.804;8.330;2022-09-30T08:27:07;17.00;79.30
3550;DHT22;45572;48.804;8.330;2022-09-30T08:29:36;17.00;79.30
3550;DHT22;45572;48.804;8.330;2022-09-30T08:32:23;16.90;77.80
3550;DHT22;45572;48.804;8.330;2022-09-30T08:34:50;16.70;79.30
3550;DHT22;45572;48.804;8.330;2022-09-30T08:37:18;16.70;79.90
3550;DHT22;45572;48.804;8.330;2022-09-30T08:39:46;16.90;79.30
3550;DHT22;45572;48.804;8.330;2022-09-30T08:42:23;16.90;78.90
3550;DHT22;45572;48.804;8.330;2022-09-30T08:45:16;17.00;78.40
3550;DHT22;45572;48.804;8.330;2022-09-30T08:47:50;17.00;78.50
3550;DHT22;45572;48.804;8.330;2022-09-30T08:50:25;16.90;79.10
3550;DHT22;45572;48.804;8.330;2022-09-30T08:52:58;17.00;79.00
3550;DHT22;45572;48.804;8.330;2022-09-30T08:55:31;17.20;78.60
3550;DHT22;45572;48.804;8.330;2022-09-30T08:58:01;17.20;78.10
3550;DHT22;45572;48.804;8.330;2022-09-30T09:00:32;17.10;78.10
3550;DHT22;45572;48.804;8.330;2022-09-30T09:03:08;17.10;78.70
3550;DHT22;45572;48.804;8.330;2022-09-30T09:05:43;17.10;78.70
3550;DHT22;45572;48.804;8.330;2022-09-30T09:08:25;17.10;78.70
3550;DHT22;45572;48.804;8.330;2022-09-30T09:10:59;17.20;78.80
3550;DHT22;45572;48.804;8.330;2022-09-30T09:13:41;17.40;78.40
3550;DHT22;45572;48.804;8.330;2022-09-30T09:16:20;17.60;78.70
3550;DHT22;45572;48.804;8.330;2022-09-30T09:18:56;17.90;77.80
3550;DHT22;45572;48.804;8.330;2022-09-30T09:21:32;18.30;76.10
3550;DHT22;45572;48.804;8.330;2022-09-30T09:24:05;18.50;74.70
3550;DHT22;45572;48.804;8.330;2022-09-30T09:26:39;18.60;74.40
3550;DHT22;45572;48.804;8.330;2022-09-30T09:29:19;18.70;73.80
3550;DHT22;45572;48.804;8.330;2022-09-30T09:31:50;18.80;73.30
3550;DHT22;45572;48.804;8.330;2022-09-30T09:34:18;18.80;73.10
3550;DHT22;45572;48.804;8.330;2022-09-30T09:36:57;18.80;73.30
3550;DHT22;45572;48.804;8.330;2022-09-30T09:39:49;19.20;72.20
3550;DHT22;45572;48.804;8.330;2022-09-30T09:42:33;19.80;70.80
3550;DHT22;45572;48.804;8.330;2022-09-30T09:45:14;20.00;69.00
3550;DHT22;45572;48.804;8.330;2022-09-30T09:47:51;20.60;68.80
3550;DHT22;45572;48.804;8.330;2022-09-30T09:50:22;21.80;65.00
3550;DHT22;45572;48.804;8.330;2022-09-30T09:53:10;23.10;63.00
3550;DHT22;45572;48.804;8.330;2022-09-30T09:55:42;23.90;59.40
3550;DHT22;45572;48.804;8.330;2022-09-30T09:58:12;23.90;59.40
3550;DHT22;45572;48.804;8.330;2022-09-30T10:00:41;24.30;59.70
3550;DHT22;45572;48.804;8.330;2022-09-30T10:03:26;24.30;57.80
3550;DHT22;45572;48.804;8.330;2022-09-30T10:06:03;24.00;58.40
3550;DHT22;45572;48.804;8.330;2022-09-30T10:08:34;23.70;58.20
3550;DHT22;45572;48.804;8.330;2022-09-30T10:11:04;23.30;59.40
3550;DHT22;45572;48.804;8.330;2022-09-30T10:13:40;23.00;59.40
3550;DHT22;45572;48.804;8.330;2022-09-30T10:16:25;22.80;60.10
3550;DHT22;45572;48.804;8.330;2022-09-30T10:18:56;22.40;61.20
3550;DHT22;45572;48.804;8.330;2022-09-30T10:21:26;21.80;62.10
3550;DHT22;45572;48.804;8.330;2022-09-30T10:23:55;21.80;62.80
3550;DHT22;45572;48.804;8.330;2022-09-30T10:26:24;21.50;63.80
3550;DHT22;45572;48.804;8.330;2022-09-30T10:29:00;21.80;63.70
3550;DHT22;45572;48.804;8.330;2022-09-30T10:31:31;22.30;62.80
3550;DHT22;45572;48.804;8.330;2022-09-30T10:34:09;23.00;61.70
3550;DHT22;45572;48.804;8.330;2022-09-30T10:36:39;24.80;57.70
3550;DHT22;45572;48.804;8.330;2022-09-30T10:39:19;26.30;54.60
3550;DHT22;45572;48.804;8.330;2022-09-30T10:41:49;27.40;52.90
3550;DHT22;45572;48.804;8.330;2022-09-30T10:44:21;27.40;50.70
3550;DHT22;45572;48.804;8.330;2022-09-30T10:46:57;26.90;50.80
3550;DHT22;45572;48.804;8.330;2022-09-30T10:49:32;26.90;52.60
3550;DHT22;45572;48.804;8.330;2022-09-30T10:52:03;26.30;52.20
3550;DHT22;45572;48.804;8.330;2022-09-30T10:54:35;26.00;53.90
3550;DHT22;45572;48.804;8.330;2022-09-30T10:57:14;25.50;54.10
3550;DHT22;45572;48.804;8.330;2022-09-30T10:59:44;25.20;54.40
3550;DHT22;45572;48.804;8.330;2022-09-30T11:02:21;24.60;54.80
3550;DHT22;45572;48.804;8.330;2022-09-30T11:04:58;24.10;57.40
3550;DHT22;45572;48.804;8.330;2022-09-30T11:07:31;23.70;57.60
3550;DHT22;45572;48.804;8.330;2022-09-30T11:10:05;23.40;58.50
3550;DHT22;45572;48.804;8.330;2022-09-30T11:12:42;22.70;59.50
3550;DHT22;45572;48.804;8.330;2022-09-30T11:15:15;22.30;61.20
3550;DHT22;45572;48.804;8.330;2022-09-30T11:17:51;21.80;61.90
3550;DHT22;45572;48.804;8.330;2022-09-30T11:20:25;21.90;62.60
3550;DHT22;45572;48.804;8.330;2022-09-30T11:22:58;22.30;62.90
3550;DHT22;45572;48.804;8.330;2022-09-30T11:25:37;22.50;62.60
3550;DHT22;45572;48.804;8.330;2022-09-30T11:28:21;22.50;61.50
3550;DHT22;45572;48.804;8.330;2022-09-30T11:30:59;22.40;61.70
3550;DHT22;45572;48.804;8.330;2022-09-30T11:33:42;22.60;61.40
3550;DHT22;45572;48.804;8.330;2022-09-30T11:36:19;22.60;60.00
3550;DHT22;45572;48.804;8.330;2022-09-30T11:39:01;22.80;60.90
3550;DHT22;45572;48.804;8.330;2022-09-30T11:41:34;23.10;60.80
3550;DHT22;45572;48.804;8.330;2022-09-30T11:44:13;23.30;59.90
3550;DHT22;45572;48.804;8.330;2022-09-30T11:47:01;22.80;59.80
3550;DHT22;45572;48.804;8.330;2022-09-30T11:49:43;22.70;60.00
3550;DHT22;45572;48.804;8.330;2022-09-30T11:52:21;22.30;61.40
3550;DHT22;45572;48.804;8.330;2022-09-30T11:55:02;22.10;62.20
3550;DHT22;45572;48.804;8.330;2022-09-30T11:57:47;21.70;63.10
3550;DHT22;45572;48.804;8.330;2022-09-30T12:00:17;21.20;64.10
3550;DHT22;45572;48.804;8.330;2022-09-30T12:02:49;21.00;64.80
3550;DHT22;45572;48.804;8.330;2022-09-30T12:05:21;20.60;65.90
3550;DHT22;45572;48.804;8.330;2022-09-30T12:07:56;20.40;67.70
3550;DHT22;45572;48.804;8.330;2022-09-30T12:10:28;20.30;68.60
3550;DHT22;45572;48.804;8.330;2022-09-30T12:13:00;20.00;67.90
3550;DHT22;45572;48.804;8.330;2022-09-30T12:15:30;20.00;68.70
3550;DHT22;45572;48.804;8.330;2022-09-30T12:18:02;20.10;68.30
3550;DHT22;45572;48.804;8.330;2022-09-30T12:20:33;20.20;68.20
3550;DHT22;45572;48.804;8.330;2022-09-30T12:23:13;20.00;68.30
3550;DHT22;45572;48.804;8.330;2022-09-30T12:25:51;20.10;68.00
3550;DHT22;45572;48.804;8.330;2022-09-30T12:28:25;20.00;68.00
3550;DHT22;45572;48.804;8.330;2022-09-30T12:34:07;19.70;69.20
3550;DHT22;45572;48.804;8.330;2022-09-30T12:36:52;19.50;70.60
3550;DHT22;45572;48.804;8.330;2022-09-30T12:39:50;19.30;70.80
3550;DHT22;45572;48.804;8.330;2022-09-30T12:42:38;19.20;71.40
3550;DHT22;45572;48.804;8.330;2022-09-30T12:45:30;19.10;72.40
3550;DHT22;45572;48.804;8.330;2022-09-30T12:48:05;19.00;72.50
3550;DHT22;45572;48.804;8.330;2022-09-30T12:50:43;18.90;71.60
3550;DHT22;45572;48.804;8.330;2022-09-30T12:53:16;18.80;72.90
3550;DHT22;45572;48.804;8.330;2022-09-30T12:55:46;18.90;72.60
3550;DHT22;45572;48.804;8.330;2022-09-30T12:58:20;19.00;70.50
3550;DHT22;45572;48.804;8.330;2022-09-30T13:01:03;19.10;70.90
3550;DHT22;45572;48.804;8.330;2022-09-30T13:03:47;19.20;72.10
3550;DHT22;45572;48.804;8.330;2022-09-30T13:06:16;18.90;71.20
3550;DHT22;45572;48.804;8.330;2022-09-30T13:12:15;18.70;73.40
3550;DHT22;45572;48.804;8.330;2022-09-30T13:14:43;18.80;72.80
3550;DHT22;45572;48.804;8.330;2022-09-30T13:17:25;18.90;72.10
3550;DHT22;45572;48.804;8.330;2022-09-30T13:19:54;18.80;73.40
3550;DHT22;45572;48.804;8.330;2022-09-30T13:22:41;18.50;72.20
3550;DHT22;45572;48.804;8.330;2022-09-30T13:25:11;18.60;74.30
3550;DHT22;45572;48.804;8.330;2022-09-30T13:27:42;18.50;74.00
3550;DHT22;45572;48.804;8.330;2022-09-30T13:36:18;18.80;73.20
3550;DHT22;45572;48.804;8.330;2022-09-30T13:39:06;18.80;73.20
3550;DHT22;45572;48.804;8.330;2022-09-30T13:41:35;18.90;72.60
3550;DHT22;45572;48.804;8.330;2022-09-30T13:44:11;18.70;72.40
3550;DHT22;45572;48.804;8.330;2022-09-30T13:46:46;18.70;71.90
3550;DHT22;45572;48.804;8.330;2022-09-30T13:49:19;18.70;72.00
3550;DHT22;45572;48.804;8.330;2022-09-30T13:51:49;18.70;72.40
3550;DHT22;45572;48.804;8.330;2022-09-30T13:54:24;18.70;71.60
3550;DHT22;45572;48.804;8.330;2022-09-30T13:56:54;18.60;71.30
3550;DHT22;45572;48.804;8.330;2022-09-30T13:59:37;18.50;72.20
3550;DHT22;45572;48.804;8.330;2022-09-30T14:02:28;18.30;72.00
3550;DHT22;45572;48.804;8.330;2022-09-30T14:05:16;18.20;72.60
3550;DHT22;45572;48.804;8.330;2022-09-30T14:08:03;18.20;73.10
3550;DHT22;45572;48.804;8.330;2022-09-30T14:10:41;18.10;71.80
3550;DHT22;45572;48.804;8.330;2022-09-30T14:13:23;18.10;73.00
3550;DHT22;45572;48.804;8.330;2022-09-30T14:16:10;18.10;72.80
3550;DHT22;45572;48.804;8.330;2022-09-30T14:21:35;17.90;72.70
3550;DHT22;45572;48.804;8.330;2022-09-30T14:24:09;17.80;72.60
3550;DHT22;45572;48.804;8.330;2022-09-30T14:26:48;17.70;73.50
3550;DHT22;45572;48.804;8.330;2022-09-30T14:29:25;17.70;74.00
3550;DHT22;45572;48.804;8.330;2022-09-30T14:31:57;17.60;73.10
3550;DHT22;45572;48.804;8.330;2022-09-30T14:34:26;17.70;72.10
3550;DHT22;45572;48.804;8.330;2022-09-30T14:36:58;17.50;72.70
3550;DHT22;45572;48.804;8.330;2022-09-30T14:39:28;17.50;73.60
3550;DHT22;45572;48.804;8.330;2022-09-30T14:41:59;17.40;72.10
3550;DHT22;45572;48.804;8.330;2022-09-30T14:44:30;17.30;73.00
3550;DHT22;45572;48.804;8.330;2022-09-30T14:47:02;17.30;74.00
3550;DHT22;45572;48.804;8.330;2022-09-30T14:49:32;17.20;73.50
3550;DHT22;45572;48.804;8.330;2022-09-30T14:52:03;17.30;75.80
3550;DHT22;45572;48.804;8.330;2022-09-30T14:54:32;17.40;75.10
3550;DHT22;45572;48.804;8.330;2022-09-30T14:57:01;17.30;73.30
3550;DHT22;45572;48.804;8.330;2022-09-30T14:59:31;17.30;72.10
3550;DHT22;45572;48.804;8.330;2022-09-30T15:02:03;17.40;72.10
3550;DHT22;45572;48.804;8.330;2022-09-30T15:04:43;17.40;74.00
3550;DHT22;45572;48.804;8.330;2022-09-30T15:07:14;17.40;72.50
3550;DHT22;45572;48.804;8.330;2022-09-30T15:09:43;17.40;72.40
3550;DHT22;45572;48.804;8.330;2022-09-30T15:12:14;17.30;71.30
3550;DHT22;45572;48.804;8.330;2022-09-30T15:14:45;17.30;73.00
3550;DHT22;45572;48.804;8.330;2022-09-30T15:17:20;17.20;73.00
3550;DHT22;45572;48.804;8.330;2022-09-30T15:19:49;17.30;75.10
3550;DHT22;45572;48.804;8.330;2022-09-30T15:22:17;17.20;76.10
3550;DHT22;45572;48.804;8.330;2022-09-30T15:24:49;17.20;76.20
3550;DHT22;45572;48.804;8.330;2022-09-30T15:27:20;17.30;76.90
3550;DHT22;45572;48.804;8.330;2022-09-30T15:29:53;17.40;76.60
3550;DHT22;45572;48.804;8.330;2022-09-30T15:32:24;17.30;78.80
3550;DHT22;45572;48.804;8.330;2022-09-30T15:34:53;17.20;79.10
3550;DHT22;45572;48.804;8.330;2022-09-30T15:37:25;17.30;79.70
3550;DHT22;45572;48.804;8.330;2022-09-30T15:40:00;17.30;79.80
3550;DHT22;45572;48.804;8.330;2022-09-30T15:42:44;17.30;79.70
3550;DHT22;45572;48.804;8.330;2022-09-30T15:45:27;17.30;81.80
3550;DHT22;45572;48.804;8.330;2022-09-30T15:48:04;17.20;81.90
3550;DHT22;45572;48.804;8.330;2022-09-30T15:50:35;17.10;81.30
3550;DHT22;45572;48.804;8.330;2022-09-30T15:53:03;17.10;82.50
3550;DHT22;45572;48.804;8.330;2022-09-30T15:55:37;17.00;80.20
3550;DHT22;45572;48.804;8.330;2022-09-30T15:58:29;17.10;80.00
3550;DHT22;45572;48.804;8.330;2022-09-30T16:01:14;17.10;80.30
3550;DHT22;45572;48.804;8.330;2022-09-30T16:03:49;17.00;80.30
3550;DHT22;45572;48.804;8.330;2022-09-30T16:06:23;17.00;80.90
3550;DHT22;45572;48.804;8.330;2022-09-30T16:08:54;16.90;78.80
3550;DHT22;45572;48.804;8.330;2022-09-30T16:11:29;16.70;79.10
3550;DHT22;45572;48.804;8.330;2022-09-30T16:13:58;16.50;78.00
3550;DHT22;45572;48.804;8.330;2022-09-30T16:16:31;16.40;78.70
3550;DHT22;45572;48.804;8.330;2022-09-30T16:19:02;16.30;79.60
3550;DHT22;45572;48.804;8.330;2022-09-30T16:21:40;16.30;78.70
3550;DHT22;45572;48.804;8.330;2022-09-30T16:27:25;16.30;79.40
3550;DHT22;45572;48.804;8.330;2022-09-30T16:29:56;16.30;80.30
3550;DHT22;45572;48.804;8.330;2022-09-30T16:32:26;16.30;81.30
3550;DHT22;45572;48.804;8.330;2022-09-30T16:34:55;16.20;82.50
3550;DHT22;45572;48.804;8.330;2022-09-30T16:37:24;16.20;83.50
3550;DHT22;45572;48.804;8.330;2022-09-30T16:39:53;16.10;83.90
3550;DHT22;45572;48.804;8.330;2022-09-30T16:42:22;15.90;84.80
3550;DHT22;45572;48.804;8.330;2022-09-30T16:44:49;15.90;85.80